createdAt,value
2023-08-29T00:01:14.756Z,96251.97
2023-08-29T00:03:41.653Z,96251.56
2023-08-29T00:06:08.311Z,96251.22
2023-08-29T00:08:35.154Z,96248.53
2023-08-29T00:11:10.585Z,96252.72
2023-08-29T00:13:37.366Z,96242.44
2023-08-29T00:16:04.466Z,96246.25
2023-08-29T00:18:31.389Z,96235.19
2023-08-29T00:20:58.359Z,96235.56
2023-08-29T00:23:26.151Z,96230.97
2023-08-29T00:25:53.096Z,96235.22
2023-08-29T00:28:19.883Z,96236.00
2023-08-29T00:30:47.035Z,96237.16
2023-08-29T00:33:14.220Z,96235.25
2023-08-29T00:35:41.742Z,96236.78
2023-08-29T00:38:12.173Z,96237.16
2023-08-29T00:40:39.032Z,96241.34
2023-08-29T00:43:06.097Z,96249.00
2023-08-29T00:45:40.908Z,96244.41
2023-08-29T00:48:09.496Z,96238.28
2023-08-29T00:50:37.279Z,96236.38
2023-08-29T00:53:06.804Z,96234.09
2023-08-29T00:55:35.478Z,96233.75
2023-08-29T00:58:04.115Z,96232.59
2023-08-29T01:00:32.517Z,96227.25
2023-08-29T01:03:00.592Z,96230.28
2023-08-29T01:05:29.790Z,96234.50
2023-08-29T01:08:01.178Z,96231.03
2023-08-29T01:10:38.061Z,96237.88
2023-08-29T01:13:27.845Z,96234.44
2023-08-29T01:15:59.718Z,96230.63
2023-08-29T01:18:31.899Z,96236.72
2023-08-29T01:21:11.774Z,96235.97
2023-08-29T01:23:45.717Z,96235.22
2023-08-29T01:26:17.613Z,96238.66
2023-08-29T01:28:46.999Z,96232.53
2023-08-29T01:31:14.861Z,96234.84
2023-08-29T01:33:42.378Z,96232.94
2023-08-29T01:36:10.005Z,96231.78
2023-08-29T01:38:36.703Z,96224.56
2023-08-29T01:41:03.688Z,96222.25
2023-08-29T01:43:30.960Z,96227.59
2023-08-29T01:45:58.096Z,96224.56
2023-08-29T01:48:25.149Z,96226.44
2023-08-29T01:50:52.501Z,96227.94
2023-08-29T01:53:19.237Z,96227.19
2023-08-29T01:55:47.933Z,96230.25
2023-08-29T01:58:15.902Z,96235.63
2023-08-29T02:00:43.961Z,96232.19
2023-08-29T02:03:10.898Z,96230.66
2023-08-29T02:05:37.658Z,96225.31
2023-08-29T02:08:04.867Z,96224.91
2023-08-29T02:10:32.034Z,96224.91
2023-08-29T02:12:59.254Z,96225.69
2023-08-29T02:15:25.924Z,96218.06
2023-08-29T02:17:54.806Z,96227.59
2023-08-29T02:20:21.898Z,96229.91
2023-08-29T02:22:48.781Z,96219.56
2023-08-29T02:25:15.579Z,96221.13
2023-08-29T02:27:42.395Z,96229.50
2023-08-29T02:30:09.726Z,96214.63
2023-08-29T02:32:36.805Z,96214.63
2023-08-29T02:35:05.325Z,96216.53
2023-08-29T02:37:34.189Z,96210.44
2023-08-29T02:40:00.898Z,96212.34
2023-08-29T02:42:27.848Z,96214.66
2023-08-29T02:44:55.176Z,96209.31
2023-08-29T02:47:21.860Z,96212.03
2023-08-29T02:49:48.527Z,96206.69
2023-08-29T02:52:15.642Z,96209.75
2023-08-29T02:54:43.231Z,96209.00
2023-08-29T02:57:09.982Z,96208.63
2023-08-29T02:59:36.641Z,96212.44
2023-08-29T03:02:04.641Z,96204.44
2023-08-29T03:04:31.595Z,96204.06
2023-08-29T03:06:59.041Z,96204.44
2023-08-29T03:09:25.853Z,96210.88
2023-08-29T03:11:52.619Z,96205.94
2023-08-29T03:14:19.301Z,96200.59
2023-08-29T03:16:46.019Z,96197.16
2023-08-29T03:19:12.806Z,96192.22
2023-08-29T03:21:39.481Z,96194.53
2023-08-29T03:24:08.503Z,96199.50
2023-08-29T03:26:35.304Z,96193.03
2023-08-29T03:29:02.346Z,96197.63
2023-08-29T03:31:29.030Z,96194.59
2023-08-29T03:33:55.873Z,96198.41
2023-08-29T03:36:23.088Z,96193.47
2023-08-29T03:38:50.037Z,96186.56
2023-08-29T03:41:16.723Z,96193.84
2023-08-29T03:43:43.506Z,96183.53
2023-08-29T03:46:10.501Z,96186.63
2023-08-29T03:48:38.296Z,96192.72
2023-08-29T03:51:08.594Z,96187.00
2023-08-29T03:53:39.366Z,96199.22
2023-08-29T03:56:09.581Z,96198.84
2023-08-29T03:58:36.848Z,96200.00
2023-08-29T04:01:05.260Z,96195.44
2023-08-29T04:03:32.779Z,96197.75
2023-08-29T04:06:00.052Z,96203.84
2023-08-29T04:08:26.766Z,96195.47
2023-08-29T04:10:53.408Z,96197.00
2023-08-29T04:13:20.474Z,96197.75
2023-08-29T04:15:47.279Z,96199.66
2023-08-29T04:18:14.134Z,96199.66
2023-08-29T04:20:40.991Z,96204.22
2023-08-29T04:23:08.587Z,96198.47
2023-08-29T04:25:37.568Z,96199.63
2023-08-29T04:28:05.858Z,96196.56
2023-08-29T04:30:32.958Z,96203.44
2023-08-29T04:33:00.861Z,96206.13
2023-08-29T04:35:27.995Z,96208.41
2023-08-29T04:37:55.791Z,96204.97
2023-08-29T04:40:23.148Z,96203.81
2023-08-29T04:42:52.736Z,96203.84
2023-08-29T04:45:20.245Z,96203.84
2023-08-29T04:47:47.086Z,96206.94
2023-08-29T04:50:15.061Z,96211.13
2023-08-29T04:52:41.862Z,96208.06
2023-08-29T04:55:08.695Z,96214.94
2023-08-29T04:57:35.374Z,96214.56
2023-08-29T05:00:02.077Z,96208.84
2023-08-29T05:02:29.101Z,96218.00
2023-08-29T05:04:55.854Z,96212.66
2023-08-29T05:07:22.705Z,96209.59
2023-08-29T05:09:49.512Z,96208.44
2023-08-29T05:12:17.664Z,96208.84
2023-08-29T05:14:44.476Z,96213.06
2023-08-29T05:17:11.463Z,96207.72
2023-08-29T05:19:38.659Z,96210.38
2023-08-29T05:22:05.770Z,96216.09
2023-08-29T05:24:33.212Z,96219.91
2023-08-29T05:26:59.958Z,96216.50
2023-08-29T05:29:26.630Z,96214.97
2023-08-29T05:31:53.294Z,96210.38
2023-08-29T05:34:20.113Z,96215.75
2023-08-29T05:36:50.070Z,96216.16
2023-08-29T05:39:16.910Z,96221.88
2023-08-29T05:41:43.597Z,96224.19
2023-08-29T05:44:10.258Z,96222.25
2023-08-29T05:46:37.149Z,96229.09
2023-08-29T05:49:04.913Z,96221.44
2023-08-29T05:51:31.825Z,96227.91
2023-08-29T05:53:58.702Z,96221.03
2023-08-29T05:56:25.364Z,96222.16
2023-08-29T05:58:52.157Z,96229.78
2023-08-29T06:01:19.214Z,96226.34
2023-08-29T06:03:45.964Z,96228.59
2023-08-29T06:06:12.760Z,96228.97
2023-08-29T06:08:41.542Z,96225.91
2023-08-29T06:11:08.393Z,96236.56
2023-08-29T06:13:35.175Z,96235.81
2023-08-29T06:16:01.966Z,96238.47
2023-08-29T06:18:28.670Z,96237.31
2023-08-29T06:20:55.451Z,96242.66
2023-08-29T06:23:22.347Z,96244.59
2023-08-29T06:25:50.345Z,96247.25
2023-08-29T06:28:17.298Z,96241.91
2023-08-29T06:30:44.275Z,96243.88
2023-08-29T06:33:11.126Z,96241.19
2023-08-29T06:35:42.171Z,96257.22
2023-08-29T06:38:09.562Z,96255.34
2023-08-29T06:40:37.239Z,96256.16
2023-08-29T06:43:04.275Z,96259.56
2023-08-29T06:45:31.039Z,96261.50
2023-08-29T06:47:57.892Z,96258.81
2023-08-29T06:50:24.880Z,96267.97
2023-08-29T06:52:51.781Z,96271.41
2023-08-29T06:55:18.547Z,96267.59
2023-08-29T06:57:45.482Z,96269.47
2023-08-29T07:00:14.350Z,96264.94
2023-08-29T07:02:41.649Z,96267.97
2023-08-29T07:05:08.598Z,96267.94
2023-08-29T07:07:37.679Z,96269.09
2023-08-29T07:10:05.549Z,96274.78
2023-08-29T07:12:33.686Z,96278.97
2023-08-29T07:15:02.140Z,96279.38
2023-08-29T07:17:29.205Z,96273.63
2023-08-29T07:19:56.709Z,96280.50
2023-08-29T07:22:24.858Z,96275.19
2023-08-29T07:24:53.078Z,96278.25
2023-08-29T07:27:20.227Z,96276.38
2023-08-29T07:29:46.936Z,96274.84
2023-08-29T07:32:13.665Z,96274.47
2023-08-29T07:34:41.425Z,96295.44
2023-08-29T07:37:09.279Z,96297.72
2023-08-29T07:39:36.276Z,96287.03
2023-08-29T07:42:04.568Z,96299.22
2023-08-29T07:44:31.850Z,96291.19
2023-08-29T07:47:14.205Z,96295.38
2023-08-29T07:49:42.501Z,96299.97
2023-08-29T07:52:10.370Z,96302.25
2023-08-29T07:54:37.079Z,96304.91
2023-08-29T07:57:04.063Z,96298.06
2023-08-29T07:59:30.751Z,96303.41
2023-08-29T08:01:57.580Z,96299.97
2023-08-29T08:04:24.461Z,96314.84
2023-08-29T08:06:51.219Z,96313.34
2023-08-29T08:09:17.994Z,96313.34
2023-08-29T08:11:44.700Z,96319.03
2023-08-29T08:14:12.855Z,96312.19
2023-08-29T08:16:39.638Z,96303.78
2023-08-29T08:19:06.687Z,96299.97
2023-08-29T08:21:33.412Z,96301.88
2023-08-29T08:24:00.045Z,96303.00
2023-08-29T08:26:27.684Z,96309.50
2023-08-29T08:28:56.175Z,96308.00
2023-08-29T08:31:23.364Z,96311.03
2023-08-29T08:33:51.797Z,96301.13
2023-08-29T08:36:18.675Z,96303.00
2023-08-29T08:38:45.357Z,96304.13
2023-08-29T08:41:12.759Z,96307.53
2023-08-29T08:43:42.350Z,96310.16
2023-08-29T08:46:10.736Z,96310.16
2023-08-29T08:48:39.414Z,96312.03
2023-08-29T08:51:07.192Z,96318.53
2023-08-29T08:53:34.504Z,96313.59
2023-08-29T08:56:01.677Z,96323.53
2023-08-29T08:58:28.587Z,96319.31
2023-08-29T09:00:56.310Z,96302.13
2023-08-29T09:03:23.519Z,96320.50
2023-08-29T09:05:51.164Z,96328.91
2023-08-29T09:08:21.575Z,96333.47
2023-08-29T09:10:48.775Z,96323.88
2023-08-29T09:13:19.339Z,96317.41
2023-08-29T09:15:49.530Z,96316.63
2023-08-29T09:18:27.746Z,96308.22
2023-08-29T09:20:54.521Z,96308.22
2023-08-29T09:23:23.616Z,96317.03
2023-08-29T09:25:56.114Z,96310.94
2023-08-29T09:28:26.433Z,96301.41
2023-08-29T09:30:53.144Z,96309.03
2023-08-29T09:33:23.947Z,96317.81
2023-08-29T09:35:51.167Z,96322.78
2023-08-29T09:38:21.744Z,96325.03
2023-08-29T09:40:50.573Z,96319.69
2023-08-29T09:43:18.496Z,96313.59
2023-08-29T09:45:53.478Z,96315.50
2023-08-29T09:48:21.123Z,96318.53
2023-08-29T09:50:50.059Z,96328.03
2023-08-29T09:53:21.275Z,96320.03
2023-08-29T09:56:06.593Z,96317.75
2023-08-29T09:58:34.049Z,96318.19
2023-08-29T10:01:01.688Z,96325.03
2023-08-29T10:03:30.141Z,96325.84
2023-08-29T10:05:58.837Z,96328.53
2023-08-29T10:08:38.112Z,96320.13
2023-08-29T10:11:07.404Z,96326.59
2023-08-29T10:13:38.512Z,96325.47
2023-08-29T10:16:05.912Z,96320.50
2023-08-29T10:18:34.776Z,96322.00
2023-08-29T10:21:04.018Z,96323.16
2023-08-29T10:23:32.382Z,96323.94
2023-08-29T10:26:01.347Z,96332.72
2023-08-29T10:28:30.230Z,96325.03
2023-08-29T10:31:02.019Z,96329.25
2023-08-29T10:33:29.149Z,96320.81
2023-08-29T10:35:56.027Z,96328.41
2023-08-29T10:38:26.229Z,96327.63
2023-08-29T10:41:04.239Z,96331.84
2023-08-29T10:43:31.374Z,96326.13
2023-08-29T10:46:00.937Z,96319.25
2023-08-29T10:48:31.376Z,96325.00
2023-08-29T10:51:12.853Z,96320.44
2023-08-29T10:53:48.883Z,96318.53
2023-08-29T10:56:19.435Z,96318.53
2023-08-29T10:58:48.930Z,96310.47
2023-08-29T11:01:37.580Z,96312.78
2023-08-29T11:04:17.301Z,96316.97
2023-08-29T11:06:57.894Z,96312.38
2023-08-29T11:09:26.307Z,96315.78
2023-08-29T11:12:10.756Z,96317.28
2023-08-29T11:15:08.360Z,96318.06
2023-08-29T11:17:36.122Z,96315.72
2023-08-29T11:20:03.541Z,96310.78
2023-08-29T11:22:31.062Z,96313.50
2023-08-29T11:24:59.070Z,96303.19
2023-08-29T11:27:28.772Z,96307.44
2023-08-29T11:30:11.191Z,96307.13
2023-08-29T11:32:42.976Z,96308.31
2023-08-29T11:35:12.726Z,96305.66
2023-08-29T11:37:40.112Z,96313.69
2023-08-29T11:40:11.400Z,96309.13
2023-08-29T11:43:18.767Z,96309.91
2023-08-29T11:45:46.141Z,96309.91
2023-08-29T11:48:23.225Z,96309.50
2023-08-29T11:50:52.701Z,96318.28
2023-08-29T11:53:32.093Z,96319.84
2023-08-29T11:56:00.571Z,96314.88
2023-08-29T11:58:32.486Z,96311.47
2023-08-29T12:01:02.196Z,96316.81
2023-08-29T12:03:29.016Z,96316.03
2023-08-29T12:05:58.282Z,96314.13
2023-08-29T12:08:39.240Z,96330.16
2023-08-29T12:11:08.094Z,96326.38
2023-08-29T12:13:36.729Z,96322.19
2023-08-29T12:16:05.702Z,96323.69
2023-08-29T12:18:33.843Z,96330.53
2023-08-29T12:21:30.299Z,96328.22
2023-08-29T12:24:10.673Z,96324.78
2023-08-29T12:26:37.457Z,96323.28
2023-08-29T12:29:04.458Z,96330.13
2023-08-29T12:31:31.328Z,96332.06
2023-08-29T12:33:58.152Z,96326.31
2023-08-29T12:36:24.842Z,96340.44
2023-08-29T12:38:51.571Z,96337.41
2023-08-29T12:41:19.008Z,96335.09
2023-08-29T12:43:45.722Z,96341.16
2023-08-29T12:46:12.405Z,96339.63
2023-08-29T12:48:39.161Z,96334.63
2023-08-29T12:51:06.568Z,96330.44
2023-08-29T12:53:33.426Z,96331.19
2023-08-29T12:56:00.583Z,96328.53
2023-08-29T12:58:27.243Z,96327.03
2023-08-29T13:00:53.938Z,96338.09
2023-08-29T13:03:22.136Z,96332.75
2023-08-29T13:05:48.995Z,96328.50
2023-08-29T13:08:16.858Z,96331.91
2023-08-29T13:10:44.165Z,96329.25
2023-08-29T13:13:10.915Z,96331.56
2023-08-29T13:15:50.576Z,96331.59
2023-08-29T13:18:18.944Z,96327.75
2023-08-29T13:20:46.051Z,96332.34
2023-08-29T13:23:12.749Z,96324.31
2023-08-29T13:25:39.519Z,96328.16
2023-08-29T13:28:06.650Z,96324.34
2023-08-29T13:30:34.454Z,96334.66
2023-08-29T13:33:01.175Z,96332.00
2023-08-29T13:35:27.825Z,96327.00
2023-08-29T13:37:54.532Z,96325.84
2023-08-29T13:40:21.964Z,96329.66
2023-08-29T13:42:50.479Z,96328.16
2023-08-29T13:45:17.705Z,96328.88
2023-08-29T13:47:46.161Z,96323.13
2023-08-29T13:50:13.182Z,96336.88
2023-08-29T13:52:39.830Z,96333.03
2023-08-29T13:55:06.832Z,96332.66
2023-08-29T13:57:33.558Z,96331.50
2023-08-29T14:00:00.295Z,96326.91
2023-08-29T14:02:27.560Z,96329.19
2023-08-29T14:04:54.632Z,96336.81
2023-08-29T14:07:21.896Z,96326.47
2023-08-29T14:09:48.776Z,96330.69
2023-08-29T14:12:15.826Z,96333.34
2023-08-29T14:14:43.201Z,96327.63
2023-08-29T14:17:10.112Z,96323.81
2023-08-29T14:19:36.762Z,96323.38
2023-08-29T14:22:05.380Z,96324.88
2023-08-29T14:24:32.553Z,96326.75
2023-08-29T14:26:59.520Z,96326.34
2023-08-29T14:29:30.330Z,96328.66
2023-08-29T14:31:57.906Z,96322.97
2023-08-29T14:34:24.878Z,96321.44
2023-08-29T14:36:51.530Z,96327.91
2023-08-29T14:39:18.427Z,96322.56
2023-08-29T14:41:45.421Z,96311.84
2023-08-29T14:44:12.354Z,96325.22
2023-08-29T14:46:39.348Z,96325.59
2023-08-29T14:49:06.308Z,96316.00
2023-08-29T14:51:33.409Z,96322.50
2023-08-29T14:54:04.441Z,96326.28
2023-08-29T14:56:31.513Z,96327.41
2023-08-29T14:59:00.799Z,96330.06
2023-08-29T15:01:28.132Z,96330.06
2023-08-29T15:03:55.390Z,96329.72
2023-08-29T15:06:22.257Z,96324.78
2023-08-29T15:08:49.442Z,96318.25
2023-08-29T15:11:16.531Z,96322.03
2023-08-29T15:13:43.393Z,96330.06
2023-08-29T15:16:10.168Z,96315.53
2023-08-29T15:18:37.165Z,96314.72
2023-08-29T15:21:04.314Z,96321.59
2023-08-29T15:23:31.212Z,96320.06
2023-08-29T15:25:58.724Z,96316.63
2023-08-29T15:28:32.365Z,96321.94
2023-08-29T15:31:02.050Z,96330.75
2023-08-29T15:33:29.709Z,96325.44
2023-08-29T15:35:58.239Z,96329.22
2023-08-29T15:38:25.809Z,96325.38
2023-08-29T15:40:56.353Z,96331.88
2023-08-29T15:43:26.188Z,96329.16
2023-08-29T15:45:53.489Z,96326.84
2023-08-29T15:48:20.329Z,96336.03
2023-08-29T15:50:47.249Z,96342.13
2023-08-29T15:53:14.678Z,96342.50
2023-08-29T15:55:42.699Z,96348.97
2023-08-29T15:58:10.083Z,96340.94
2023-08-29T16:00:38.207Z,96334.41
2023-08-29T16:03:07.745Z,96337.47
2023-08-29T16:05:34.797Z,96340.53
2023-08-29T16:08:02.277Z,96342.09
2023-08-29T16:10:28.979Z,96345.53
2023-08-29T16:12:56.094Z,96337.19
2023-08-29T16:15:22.784Z,96338.69
2023-08-29T16:17:49.816Z,96345.97
2023-08-29T16:20:16.765Z,96346.34
2023-08-29T16:22:43.470Z,96348.72
2023-08-29T16:25:10.617Z,96346.44
2023-08-29T16:27:37.525Z,96344.56
2023-08-29T16:30:06.350Z,96343.03
2023-08-29T16:32:33.391Z,96345.69
2023-08-29T16:35:00.569Z,96354.88
2023-08-29T16:37:27.381Z,96346.03
2023-08-29T16:39:54.292Z,96352.53
2023-08-29T16:42:21.142Z,96354.44
2023-08-29T16:44:48.257Z,96357.88
2023-08-29T16:47:15.145Z,96358.97
2023-08-29T16:49:41.989Z,96352.09
2023-08-29T16:52:09.864Z,96366.66
2023-08-29T16:54:36.660Z,96360.13
2023-08-29T16:57:04.652Z,96363.97
2023-08-29T16:59:33.304Z,96354.38
2023-08-29T17:02:00.285Z,96353.59
2023-08-29T17:04:29.228Z,96357.81
2023-08-29T17:06:56.151Z,96355.94
2023-08-29T17:09:22.910Z,96356.34
2023-08-29T17:11:49.727Z,96355.59
2023-08-29T17:14:16.686Z,96355.97
2023-08-29T17:16:43.463Z,96361.34
2023-08-29T17:19:12.884Z,96364.38
2023-08-29T17:21:41.260Z,96354.47
2023-08-29T17:24:08.276Z,96349.88
2023-08-29T17:26:35.727Z,96353.31
2023-08-29T17:29:02.564Z,96353.66
2023-08-29T17:31:29.364Z,96356.75
2023-08-29T17:33:56.223Z,96363.25
2023-08-29T17:36:23.071Z,96362.13
2023-08-29T17:38:49.886Z,96360.94
2023-08-29T17:41:16.678Z,96368.63
2023-08-29T17:43:43.443Z,96367.44
2023-08-29T17:46:10.222Z,96373.53
2023-08-29T17:48:36.986Z,96362.81
2023-08-29T17:51:04.224Z,96364.34
2023-08-29T17:53:31.360Z,96365.50
2023-08-29T17:55:58.391Z,96370.44
2023-08-29T17:58:25.815Z,96365.09
2023-08-29T18:00:53.661Z,96364.34
2023-08-29T18:03:20.797Z,96360.53
2023-08-29T18:05:49.560Z,96363.25
2023-08-29T18:08:17.754Z,96365.53
2023-08-29T18:10:45.301Z,96366.34
2023-08-29T18:13:13.426Z,96364.44
2023-08-29T18:15:41.182Z,96362.56
2023-08-29T18:18:29.339Z,96367.56
2023-08-29T18:20:58.425Z,96362.19
2023-08-29T18:23:26.771Z,96370.22
2023-08-29T18:25:55.451Z,96363.72
2023-08-29T18:28:22.246Z,96364.53
2023-08-29T18:30:49.024Z,96367.19
2023-08-29T18:33:15.659Z,96368.31
2023-08-29T18:35:44.527Z,96363.38
2023-08-29T18:38:12.568Z,96371.00
2023-08-29T18:40:40.132Z,96366.81
2023-08-29T18:43:06.940Z,96367.19
2023-08-29T18:45:33.715Z,96369.88
2023-08-29T18:48:00.479Z,96375.97
2023-08-29T18:50:28.003Z,96368.31
2023-08-29T18:52:55.264Z,96367.56
2023-08-29T18:55:21.882Z,96370.28
2023-08-29T18:57:48.813Z,96372.19
2023-08-29T19:00:16.329Z,96377.19
2023-08-29T19:02:44.113Z,96376.78
2023-08-29T19:05:12.063Z,96376.41
2023-08-29T19:07:39.499Z,96374.88
2023-08-29T19:10:07.283Z,96379.47
2023-08-29T19:12:34.418Z,96378.31
2023-08-29T19:15:06.804Z,96374.47
2023-08-29T19:17:35.172Z,96370.25
2023-08-29T19:20:03.386Z,96371.75
2023-08-29T19:22:30.408Z,96376.75
2023-08-29T19:24:57.352Z,96377.13
2023-08-29T19:29:53.818Z,96364.53
2023-08-29T19:32:20.600Z,96367.56
2023-08-29T19:34:47.526Z,96378.25
2023-08-29T19:37:14.331Z,96368.31
2023-08-29T19:39:41.117Z,96362.56
2023-08-29T19:42:07.858Z,96371.34
2023-08-29T19:44:34.675Z,96366.00
2023-08-29T19:47:04.046Z,96360.66
2023-08-29T19:49:38.537Z,96373.63
2023-08-29T19:52:06.794Z,96371.34
2023-08-29T19:54:33.740Z,96371.34
2023-08-29T19:57:00.572Z,96369.44
2023-08-29T19:59:27.358Z,96366.00
2023-08-29T20:01:54.356Z,96369.44
2023-08-29T20:04:21.119Z,96370.19
2023-08-29T20:06:47.998Z,96366.00
2023-08-29T20:09:14.803Z,96365.25
2023-08-29T20:11:41.583Z,96363.72
2023-08-29T20:14:08.413Z,96367.16
2023-08-29T20:16:35.243Z,96373.28
2023-08-29T20:19:02.178Z,96375.94
2023-08-29T20:21:29.223Z,96377.09
2023-08-29T20:24:02.530Z,96376.34
2023-08-29T20:26:31.693Z,96378.66
2023-08-29T20:29:00.911Z,96369.09
2023-08-29T20:31:28.354Z,96378.66
2023-08-29T20:33:55.319Z,96377.13
2023-08-29T20:36:22.376Z,96373.31
2023-08-29T20:38:49.284Z,96375.97
2023-08-29T20:41:16.003Z,96372.16
2023-08-29T20:43:43.209Z,96375.97
2023-08-29T20:46:10.008Z,96373.31
2023-08-29T20:48:36.871Z,96366.03
2023-08-29T20:51:04.267Z,96375.22
2023-08-29T20:53:35.554Z,96374.44
2023-08-29T20:56:03.354Z,96377.50
2023-08-29T20:58:30.452Z,96370.63
2023-08-29T21:00:59.238Z,96376.00
2023-08-29T21:03:31.860Z,96369.13
2023-08-29T21:06:00.616Z,96372.19
2023-08-29T21:08:27.855Z,96363.81
2023-08-29T21:10:55.705Z,96359.97
2023-08-29T21:13:23.661Z,96359.97
2023-08-29T21:15:51.118Z,96358.81
2023-08-29T21:18:19.782Z,96361.50
2023-08-29T21:20:54.764Z,96360.72
2023-08-29T21:23:23.197Z,96359.97
2023-08-29T21:25:50.946Z,96360.72
2023-08-29T21:28:20.849Z,96358.44
2023-08-29T21:30:47.802Z,96364.94
2023-08-29T21:33:15.145Z,96361.88
2023-08-29T21:35:44.239Z,96357.66
2023-08-29T21:38:12.272Z,96350.41
2023-08-29T21:40:41.371Z,96345.81
2023-08-29T21:43:12.478Z,96342.75
2023-08-29T21:45:42.363Z,96338.16
2023-08-29T21:48:11.134Z,96341.59
2023-08-29T21:50:42.960Z,96337.81
2023-08-29T21:53:11.513Z,96336.25
2023-08-29T21:55:40.428Z,96332.06
2023-08-29T21:58:11.822Z,96325.53
2023-08-29T22:00:39.019Z,96314.47
2023-08-29T22:03:07.118Z,96312.97
2023-08-29T22:05:34.289Z,96311.84
2023-08-29T22:08:01.199Z,96309.53
2023-08-29T22:10:28.047Z,96303.81
2023-08-29T22:12:55.082Z,96302.66
2023-08-29T22:15:21.782Z,96308.78
2023-08-29T22:17:49.146Z,96301.56
2023-08-29T22:20:16.554Z,96293.56
2023-08-29T22:22:43.292Z,96290.50
2023-08-29T22:25:10.881Z,96288.97
2023-08-29T22:27:38.086Z,96301.19
2023-08-29T22:30:06.785Z,96303.09
2023-08-29T22:32:33.935Z,96302.72
2023-08-29T22:35:01.712Z,96301.56
2023-08-29T22:37:28.870Z,96292.38
2023-08-29T22:39:55.800Z,96291.22
2023-08-29T22:42:23.176Z,96290.44
2023-08-29T22:44:50.149Z,96287.78
2023-08-29T22:47:16.998Z,96285.47
2023-08-29T22:49:44.607Z,96285.47
2023-08-29T22:52:11.516Z,96280.91
2023-08-29T22:54:39.061Z,96281.66
2023-08-29T22:57:06.578Z,96280.50
2023-08-29T22:59:33.503Z,96283.56
2023-08-29T23:02:00.921Z,96286.66
2023-08-29T23:04:30.779Z,96285.50
2023-08-29T23:07:05.552Z,96277.50
2023-08-29T23:09:33.273Z,96272.50
2023-08-29T23:12:01.954Z,96273.66
2023-08-29T23:14:29.904Z,96279.78
2023-08-29T23:16:57.911Z,96275.97
2023-08-29T23:19:25.100Z,96274.44
2023-08-29T23:21:55.727Z,96272.16
2023-08-29T23:24:22.594Z,96275.94
2023-08-29T23:26:49.555Z,96270.59
2023-08-29T23:29:17.294Z,96277.88
2023-08-29T23:31:44.530Z,96282.81
2023-08-29T23:34:11.270Z,96280.91
2023-08-29T23:36:38.798Z,96282.81
2023-08-29T23:39:08.230Z,96281.69
2023-08-29T23:41:35.468Z,96274.06
2023-08-29T23:44:02.395Z,96278.25
2023-08-29T23:46:29.625Z,96281.31
2023-08-29T23:48:56.497Z,96287.06
2023-08-29T23:51:23.589Z,96274.09
2023-08-29T23:53:51.907Z,96278.69
2023-08-29T23:56:18.903Z,96280.59
2023-08-29T23:58:46.555Z,96282.88
